Etusivu
METAR-TAF:

METAR-TAF

Lentoasemat :

Santander, Espanja

Leveyspiiri: 43-26N, Pituuspiiri: 003-49W, korkeus merenpinnasta: 6 m

Tämänhetkinen sää

Tämä raportti tehtiin 12 minuuttia sitten, kello 23.30 UTC
Tuuli 1 kn lounaasta
Lämpötila 14°C
Kosteus 72%
Ilmanpaine 1018 hPa
Näkyvyys 10 km tai enemmän
Hajonneita pilviä 4900 ft:n korkeudessa

METAR: LEXJ 252330Z AUTO 22001KT 9999 BKN049 14/09 Q1018

Aika: 01:42 (23:42 UTC)

Sääennuste

Tämä raportti tehtiin 3 tuntia ja 42 minuuttia sitten, kello 20.00 UTC
Ennuste voimassa 25. päivästä klo 21 UTC - 26. päivään klo 21 UTC
Tuuli 7 kn lännestä
Näkyvyys 10 km tai enemmän
Muutamia pilviä 4000 ft:n korkeudessa
Todennäköisyys 30% :
Ajoittain
26. päivästä klo 02 UTC - 26. päivään klo 10 UTC
Näkyvyys: 3000 m
Hajonneita pilviä 1000 ft:n korkeudessa
tihkusadetta, utua,

TAF: LEXJ 252000Z 2521/2621 27007KT 9999 FEW040 TX18/2521Z TN15/2606Z PROB30 TEMPO 2602/2610 3000 DZ BR BKN010

Säähavainnot ja -ennusteet yli 4000 lentoasemalta (METAR- ja TAF-raportit).

Käytössä olevat sääasemat on merkitty karttaan keltaisilla ja punaisilla pisteillä.

Aseta hiiri pisteen päälle nähdäksesi sääaseman nimen.

Klikkaa sitten nähdäksesi säähavainnot ja -ennusteet.

Kartan vaihtaminen: klikkaa mustalla rastilla varustettuja vihreitä pisteitä, niin voit zoomata sisään; viivalla varustettua vihreää pistettä, niin voit zoomata ulos tai vihreitä nuolia, niin pääset viereisille kartoille.


METAR-TAF: